Time;durP1;ratioP1;P1;durP2;ratioP2;P2;SDS_P1;SDS_P2;PMS_P1;PMS_P2;Temp;Humidity;BMP_temperature;BMP_pressure;BME280_temperature;BME280_humidity;BME280_pressure;Samples;Min_cycle;Max_cycle;Signal;HPM_P1;HPM_P2
2021/04/06 00:01:34;;;;;;;3.87;2.50;;;;;;;20.38;52.00;99944.51;1775922;79;21491;-56
2021/04/06 00:04:00;;;;;;;3.00;2.30;;;;;;;20.39;51.96;99942.56;1825865;78;22762;-56
2021/04/06 00:06:27;;;;;;;3.10;2.17;;;;;;;20.38;51.95;99938.98;1766655;80;21174;-56
2021/04/06 00:08:54;;;;;;;3.33;2.10;;;;;;;20.37;51.93;99932.41;1725364;81;21141;-56
2021/04/06 00:11:21;;;;;;;3.30;2.25;;;;;;;20.35;51.91;99932.76;1756874;79;21237;-56
2021/04/06 00:13:48;;;;;;;2.95;2.17;;;;;;;20.34;51.90;99926.17;1777200;78;21181;-57
2021/04/06 00:16:15;;;;;;;3.55;2.37;;;;;;;20.35;51.89;99922.28;1771538;79;21201;-56
2021/04/06 00:18:42;;;;;;;4.05;2.55;;;;;;;20.35;51.88;99921.70;1770205;80;21099;-55
2021/04/06 00:21:08;;;;;;;2.62;2.00;;;;;;;20.35;51.84;99919.52;1783697;78;21478;-56
2021/04/06 00:23:35;;;;;;;3.40;2.17;;;;;;;20.34;51.81;99922.03;1762869;80;21149;-56
2021/04/06 00:26:02;;;;;;;3.02;2.42;;;;;;;20.32;51.78;99920.20;1767013;79;21442;-56
2021/04/06 00:28:35;;;;;;;3.33;2.30;;;;;;;20.30;51.78;99916.95;1761686;80;21382;-56
2021/04/06 00:31:02;;;;;;;2.90;1.98;;;;;;;20.28;51.75;99915.08;1795498;79;21411;-55
2021/04/06 00:33:38;;;;;;;3.12;2.17;;;;;;;20.25;51.75;99901.92;1811218;77;21161;-56
2021/04/06 00:36:05;;;;;;;3.25;2.45;;;;;;;20.24;51.73;99901.71;1806648;78;21157;-55
2021/04/06 00:38:37;;;;;;;2.77;2.15;;;;;;;20.22;51.71;99902.03;1813123;77;21535;-54
2021/04/06 00:41:08;;;;;;;3.25;2.30;;;;;;;20.22;51.69;99901.22;1808307;78;22588;-56
2021/04/06 00:43:36;;;;;;;2.70;2.10;;;;;;;20.19;51.69;99901.34;1775353;80;21108;-56
2021/04/06 00:46:06;;;;;;;3.00;2.12;;;;;;;20.18;51.65;99893.38;1812553;78;21020;-56
2021/04/06 00:48:33;;;;;;;3.05;2.37;;;;;;;20.15;51.65;99894.06;1797413;78;21118;-56
2021/04/06 00:51:16;;;;;;;3.00;2.20;;;;;;;20.12;51.62;99894.14;1839714;77;20988;-56
2021/04/06 00:53:54;;;;;;;3.45;2.30;;;;;;;20.09;51.60;99889.30;1818072;78;21910;-56
2021/04/06 00:56:31;;;;;;;5.53;2.55;;;;;;;20.06;51.60;99892.73;1815028;79;21111;-56
2021/04/06 00:59:01;;;;;;;4.03;2.40;;;;;;;20.05;51.59;99886.97;1811717;78;21490;-56
2021/04/06 01:01:45;;;;;;;3.60;2.50;;;;;;;20.04;51.56;99882.59;1765917;80;21035;-56
2021/04/06 01:04:37;;;;;;;3.58;2.65;;;;;;;20.02;51.54;99876.04;1754935;80;21190;-55
2021/04/06 01:07:18;;;;;;;3.52;2.45;;;;;;;20.00;51.50;99875.55;1782897;80;21205;-56
2021/04/06 01:09:51;;;;;;;3.58;2.37;;;;;;;19.97;51.50;99874.85;1790802;80;21481;-56
2021/04/06 01:12:22;;;;;;;4.17;2.35;;;;;;;19.93;51.45;99864.25;1763444;80;21155;-56
2021/04/06 01:14:50;;;;;;;3.58;2.50;;;;;;;19.90;51.43;99861.35;1785589;80;21047;-56
2021/04/06 01:17:21;;;;;;;3.67;2.42;;;;;;;19.88;51.44;99859.48;1783450;79;21074;-56
2021/04/06 01:19:47;;;;;;;3.52;2.25;;;;;;;19.87;51.44;99860.62;1786929;79;21386;-56
2021/04/06 01:22:16;;;;;;;3.00;2.15;;;;;;;19.87;51.43;99853.15;1764315;80;21169;-56
2021/04/06 01:24:43;;;;;;;2.98;2.25;;;;;;;19.89;51.44;99848.12;1782676;80;21114;-56
2021/04/06 01:27:14;;;;;;;3.08;2.40;;;;;;;19.91;51.41;99845.00;1775987;80;21182;-56
2021/04/06 01:29:54;;;;;;;3.33;2.47;;;;;;;19.92;51.40;99842.48;1794921;79;21586;-56
2021/04/06 01:32:22;;;;;;;3.62;2.30;;;;;;;19.96;51.37;99843.42;1803762;79;21005;-56
2021/04/06 01:34:49;;;;;;;3.05;2.35;;;;;;;19.96;51.35;99841.48;1777944;79;21198;-55
2021/04/06 01:37:24;;;;;;;3.30;2.47;;;;;;;19.98;51.32;99840.58;1787466;79;21110;-56
2021/04/06 01:39:53;;;;;;;2.70;2.00;;;;;;;20.01;51.28;99848.75;1811654;78;21152;-55
2021/04/06 01:42:22;;;;;;;3.25;2.37;;;;;;;20.04;51.26;99839.79;1774302;80;21197;-56
2021/04/06 01:44:51;;;;;;;3.67;2.35;;;;;;;20.06;51.23;99834.19;1789662;79;21649;-56
2021/04/06 01:47:18;;;;;;;2.83;2.00;;;;;;;20.10;51.20;99831.55;1742046;79;21157;-56
2021/04/06 01:49:45;;;;;;;3.30;2.00;;;;;;;20.12;51.14;99829.24;1754967;80;21154;-56
2021/04/06 01:52:11;;;;;;;2.67;1.95;;;;;;;20.14;51.11;99835.25;1773172;79;21511;-56
2021/04/06 01:54:40;;;;;;;3.10;2.20;;;;;;;20.15;51.08;99831.92;1775355;78;21173;-57
2021/04/06 01:57:17;;;;;;;3.27;2.12;;;;;;;20.16;51.05;99825.23;1766797;80;22166;-55
2021/04/06 01:59:40;;;;;;;3.15;2.12;;;;;;;20.17;51.04;99822.70;1765965;80;21210;-56
2021/04/06 02:02:08;;;;;;;3.10;1.95;;;;;;;20.18;51.02;99822.38;1734936;81;21150;-55
2021/04/06 02:04:34;;;;;;;3.08;2.17;;;;;;;20.19;50.99;99828.72;1782914;80;21185;-56
2021/04/06 02:07:04;;;;;;;2.98;2.20;;;;;;;20.22;50.98;99816.98;1789594;80;21142;-56
2021/04/06 02:09:31;;;;;;;3.17;2.20;;;;;;;20.23;50.96;99816.66;1769791;80;23610;-56
2021/04/06 02:11:57;;;;;;;2.75;2.00;;;;;;;20.24;50.92;99809.97;1776597;79;21202;-56
2021/04/06 02:14:24;;;;;;;2.75;1.92;;;;;;;20.26;50.87;99806.88;1790131;79;21450;-56
2021/04/06 02:17:03;;;;;;;2.92;1.98;;;;;;;20.27;50.82;99808.50;1790135;79;21130;-56
2021/04/06 02:19:39;;;;;;;2.67;1.92;;;;;;;20.28;50.81;99801.83;1786849;80;21137;-56
2021/04/06 02:22:14;;;;;;;2.98;2.00;;;;;;;20.28;50.80;99796.31;1806294;79;21184;-56
2021/04/06 02:24:47;;;;;;;3.08;1.77;;;;;;;20.30;50.75;99792.65;1764640;79;21181;-55
2021/04/06 02:27:20;;;;;;;3.10;1.85;;;;;;;20.30;50.73;99793.45;1781678;80;21149;-56
2021/04/06 02:29:59;;;;;;;2.65;1.90;;;;;;;20.32;50.71;99784.27;1772787;79;21134;-56
2021/04/06 02:32:29;;;;;;;2.45;1.90;;;;;;;20.33;50.68;99783.67;1774335;80;21068;-55
2021/04/06 02:34:58;;;;;;;2.67;1.98;;;;;;;20.32;50.64;99780.70;1785417;79;22436;-56
2021/04/06 02:37:31;;;;;;;4.03;2.17;;;;;;;20.31;50.60;99772.17;1733856;81;21133;-55
2021/04/06 02:40:02;;;;;;;3.08;2.00;;;;;;;20.30;50.63;99774.69;1784240;78;21432;-56
2021/04/06 02:42:40;;;;;;;2.95;2.27;;;;;;;20.29;50.61;99768.90;1780474;80;21161;-56
2021/04/06 02:45:29;;;;;;;3.42;2.42;;;;;;;20.28;50.61;99765.36;1787472;79;21206;-56
2021/04/06 02:48:05;;;;;;;2.65;1.80;;;;;;;20.27;50.59;99766.50;1787825;80;20995;-56
2021/04/06 02:50:33;;;;;;;2.72;1.98;;;;;;;20.27;50.55;99767.06;1803645;78;21063;-55
2021/04/06 02:53:00;;;;;;;2.80;1.90;;;;;;;20.26;50.53;99762.68;1767890;80;21158;-54
2021/04/06 02:55:27;;;;;;;2.77;2.00;;;;;;;20.25;50.52;99761.06;1801602;79;21171;-53
2021/04/06 02:57:55;;;;;;;2.80;1.82;;;;;;;20.23;50.49;99761.98;1734548;80;21149;-55
2021/04/06 03:00:31;;;;;;;2.42;1.67;;;;;;;20.20;50.46;99758.53;1813951;78;21184;-55
2021/04/06 03:03:20;;;;;;;2.67;2.02;;;;;;;20.19;50.49;99766.01;1797662;79;21157;-56
2021/04/06 03:05:47;;;;;;;2.55;2.10;;;;;;;20.17;50.47;99761.95;1797207;79;21569;-55
2021/04/06 03:08:13;;;;;;;3.72;2.00;;;;;;;20.16;50.47;99757.57;1793482;80;21165;-56
2021/04/06 03:10:40;;;;;;;4.17;2.15;;;;;;;20.15;50.45;99753.22;1775682;79;21142;-56
2021/04/06 03:13:11;;;;;;;2.67;2.10;;;;;;;20.13;50.43;99753.55;1790992;79;21871;-56
2021/04/06 03:15:39;;;;;;;3.02;1.92;;;;;;;20.10;50.41;99754.23;1817341;77;21191;-55
2021/04/06 03:18:06;;;;;;;2.87;1.90;;;;;;;20.07;50.38;99759.84;1819651;77;21387;-57
2021/04/06 03:20:36;;;;;;;2.95;2.22;;;;;;;20.05;50.40;99761.34;1794907;80;21071;-55
2021/04/06 03:23:04;;;;;;;3.12;2.37;;;;;;;20.01;50.37;99763.98;1821824;78;21118;-56
2021/04/06 03:25:36;;;;;;;3.52;2.10;;;;;;;19.99;50.37;99767.63;1824985;78;21243;-56
2021/04/06 03:28:09;;;;;;;2.83;2.25;;;;;;;19.98;50.38;99761.09;1766663;80;21199;-59
2021/04/06 03:30:36;;;;;;;4.15;2.15;;;;;;;19.97;50.39;99760.28;1789574;79;21156;-55
2021/04/06 03:33:12;;;;;;;3.17;2.05;;;;;;;19.95;50.35;99758.41;1799903;77;21519;-56
2021/04/06 03:35:41;;;;;;;3.30;2.50;;;;;;;19.93;50.32;99748.87;1807247;77;21509;-55
2021/04/06 03:38:09;;;;;;;3.40;2.30;;;;;;;19.91;50.31;99758.86;1805579;79;21194;-56
2021/04/06 03:40:38;;;;;;;3.12;2.20;;;;;;;19.88;50.30;99753.20;1796213;78;21600;-57
2021/04/06 03:43:19;;;;;;;3.42;2.33;;;;;;;19.86;50.30;99748.62;1805538;78;21023;-55
2021/04/06 03:46:04;;;;;;;2.65;2.17;;;;;;;19.82;50.29;99742.94;1785218;78;21161;-56
2021/04/06 03:48:32;;;;;;;4.22;2.58;;;;;;;19.83;50.33;99739.03;1803461;77;21210;-56
2021/04/06 03:50:59;;;;;;;3.35;2.42;;;;;;;19.87;50.38;99726.75;1784452;78;21220;-56
2021/04/06 03:53:41;;;;;;;3.55;2.17;;;;;;;19.92;50.47;99735.63;1784532;78;21094;-57
2021/04/06 03:56:11;;;;;;;4.00;2.50;;;;;;;19.99;50.52;99732.31;1780280;78;21110;-57
2021/04/06 04:01:07;;;;;;;5.00;2.85;;;;;;;20.13;50.56;99729.27;1803873;77;21153;-58
2021/04/06 04:03:35;;;;;;;4.03;2.58;;;;;;;20.19;50.59;99727.91;1779562;78;21200;-58
2021/04/06 04:06:01;;;;;;;4.20;2.60;;;;;;;20.28;50.59;99724.50;1813233;77;21833;-57
2021/04/06 04:08:28;;;;;;;3.87;2.80;;;;;;;20.37;50.56;99727.97;1782402;78;21136;-57
2021/04/06 04:10:55;;;;;;;4.08;2.50;;;;;;;20.40;50.51;99721.79;1811296;77;21538;-57
2021/04/06 04:13:21;;;;;;;3.60;2.35;;;;;;;20.46;50.47;99732.84;1802386;78;21199;-57
2021/04/06 04:15:48;;;;;;;3.02;2.25;;;;;;;20.51;50.46;99728.47;1814089;77;21241;-57
2021/04/06 04:18:15;;;;;;;3.60;2.75;;;;;;;20.58;50.48;99730.09;1804994;77;21218;-56
2021/04/06 04:20:42;;;;;;;4.20;2.27;;;;;;;20.68;50.46;99732.98;1785297;78;21161;-58
2021/04/06 04:23:09;;;;;;;4.08;2.67;;;;;;;20.76;50.40;99727.36;1811319;77;21170;-58
2021/04/06 04:25:36;;;;;;;3.65;2.52;;;;;;;20.83;50.33;99730.38;1816372;77;21211;-58
2021/04/06 04:28:03;;;;;;;6.00;2.87;;;;;;;20.88;50.25;99733.46;1822538;77;21198;-57
2021/04/06 04:30:37;;;;;;;4.53;2.87;;;;;;;20.89;50.20;99727.59;1819477;77;21257;-56
2021/04/06 04:33:09;;;;;;;4.78;3.15;;;;;;;20.93;50.17;99726.33;1819543;77;21126;-57
2021/04/06 04:35:37;;;;;;;4.78;2.83;;;;;;;20.94;50.17;99725.99;1818577;77;21143;-57
2021/04/06 04:38:05;;;;;;;4.20;2.65;;;;;;;21.01;50.21;99726.78;1793541;79;21130;-57
2021/04/06 04:40:31;;;;;;;5.08;2.75;;;;;;;21.09;50.21;99730.61;1812956;77;22190;-56
2021/04/06 04:42:58;;;;;;;6.45;2.70;;;;;;;21.17;50.17;99731.09;1820169;77;21225;-55
2021/04/06 04:45:25;;;;;;;6.03;3.17;;;;;;;21.22;50.09;99734.41;1824408;77;21166;-56
2021/04/06 04:47:52;;;;;;;6.80;3.10;;;;;;;21.27;50.02;99730.03;1817020;77;21148;-57
2021/04/06 04:50:20;;;;;;;9.48;4.72;;;;;;;21.30;50.00;99726.55;1822724;77;21176;-57
2021/04/06 04:52:47;;;;;;;3.35;2.45;;;;;;;21.34;50.01;99733.61;1823209;77;21130;-56
2021/04/06 04:55:15;;;;;;;3.33;2.42;;;;;;;21.37;50.01;99729.56;1786367;78;21087;-56
2021/04/06 04:57:42;;;;;;;3.55;2.65;;;;;;;21.43;50.01;99733.48;1804940;77;21526;-57
2021/04/06 05:00:10;;;;;;;5.45;2.72;;;;;;;21.48;49.97;99732.64;1785191;78;21154;-57
2021/04/06 05:02:37;;;;;;;3.40;2.47;;;;;;;21.52;49.92;99731.36;1806857;77;21440;-57
2021/04/06 05:05:05;;;;;;;4.75;2.90;;;;;;;21.51;49.88;99725.05;1808065;77;21178;-57
2021/04/06 05:07:32;;;;;;;4.87;2.42;;;;;;;21.51;49.86;99721.47;1810235;77;21196;-57
2021/04/06 05:09:59;;;;;;;3.98;2.72;;;;;;;21.50;49.89;99706.02;1814330;77;21133;-56
2021/04/06 05:12:25;;;;;;;5.12;2.50;;;;;;;21.51;49.91;99712.59;1811489;78;21844;-57
2021/04/06 05:14:51;;;;;;;6.47;3.12;;;;;;;21.56;49.93;99710.13;1810501;77;21102;-57
2021/04/06 05:17:18;;;;;;;5.50;3.50;;;;;;;21.58;49.93;99700.34;1799320;78;21226;-57
2021/04/06 05:19:44;;;;;;;11.10;4.37;;;;;;;21.62;49.91;99696.28;1780279;78;20981;-57
2021/04/06 05:22:11;;;;;;;7.15;3.58;;;;;;;21.62;49.89;99689.36;1783769;78;21118;-58
2021/04/06 05:24:37;;;;;;;6.55;3.55;;;;;;;21.61;49.89;99687.17;1785697;78;21173;-57
2021/04/06 05:27:05;;;;;;;5.03;3.15;;;;;;;21.62;49.93;99691.56;1812810;77;21051;-56
2021/04/06 05:29:31;;;;;;;11.12;4.92;;;;;;;21.64;49.99;99696.75;1777059;78;21533;-57
2021/04/06 05:31:58;;;;;;;14.83;6.08;;;;;;;21.67;50.02;99684.97;1813821;77;21592;-58
2021/04/06 05:34:24;;;;;;;7.72;3.60;;;;;;;21.70;50.04;99690.61;1807859;77;21140;-58
2021/04/06 05:36:50;;;;;;;7.03;3.17;;;;;;;21.70;50.05;99690.61;1808222;77;21130;-57
2021/04/06 05:39:17;;;;;;;4.72;3.12;;;;;;;21.69;50.13;99690.38;1784770;78;21496;-57
2021/04/06 05:41:47;;;;;;;5.53;3.47;;;;;;;21.67;50.15;99684.40;1803927;77;21545;-58
2021/04/06 05:44:14;;;;;;;4.60;2.90;;;;;;;21.64;50.22;99679.54;1810689;77;21066;-57
2021/04/06 05:46:42;;;;;;;4.90;3.20;;;;;;;21.65;50.27;99680.34;1809357;77;21225;-58
2021/04/06 05:49:15;;;;;;;5.47;3.12;;;;;;;21.66;50.31;99673.09;1780770;78;21181;-57
2021/04/06 05:51:43;;;;;;;3.83;2.80;;;;;;;21.67;50.33;99668.36;1783255;78;21559;-57
2021/04/06 05:54:12;;;;;;;3.83;2.67;;;;;;;21.69;50.35;99678.48;1792293;78;21581;-57
2021/04/06 05:56:39;;;;;;;5.22;3.67;;;;;;;21.68;50.36;99674.13;1772723;78;21192;-56
2021/04/06 05:59:06;;;;;;;4.30;2.98;;;;;;;21.66;50.38;99673.66;1790394;78;21180;-56
2021/04/06 06:01:36;;;;;;;4.15;2.65;;;;;;;21.64;50.46;99664.92;1779422;78;21366;-57
2021/04/06 06:04:03;;;;;;;5.30;3.52;;;;;;;21.68;50.50;99676.33;1789590;78;21498;-57
2021/04/06 06:06:30;;;;;;;5.83;3.45;;;;;;;21.72;50.50;99675.04;1803004;78;21525;-56
2021/04/06 06:08:58;;;;;;;4.87;3.15;;;;;;;21.72;50.45;99675.84;1802426;77;21681;-57
2021/04/06 06:11:25;;;;;;;7.25;4.05;;;;;;;21.71;50.44;99671.46;1781077;78;21210;-58
2021/04/06 06:13:52;;;;;;;4.53;3.22;;;;;;;21.68;50.45;99662.48;1775433;78;21212;-57
2021/04/06 06:16:21;;;;;;;5.87;3.77;;;;;;;21.66;50.46;99659.83;1807119;77;21042;-55
2021/04/06 06:19:06;;;;;;;9.43;5.62;;;;;;;21.64;50.54;99658.00;1802692;78;21017;-56
2021/04/06 06:21:51;;;;;;;7.95;4.08;;;;;;;21.66;50.59;99651.52;1789348;78;21145;-57
2021/04/06 06:24:33;;;;;;;4.37;3.08;;;;;;;21.68;50.61;99656.14;1812272;78;21183;-54
2021/04/06 06:26:59;;;;;;;8.65;4.12;;;;;;;21.66;50.66;99656.48;1810192;77;21160;-54
2021/04/06 06:29:29;;;;;;;5.60;4.00;;;;;;;21.61;50.72;99649.00;1817995;77;21633;-54
2021/04/06 06:31:58;;;;;;;8.55;3.42;;;;;;;21.55;50.82;99651.23;1818150;78;21189;-54
2021/04/06 06:34:39;;;;;;;;;;;;;;;21.49;50.90;99644.89;1814490;77;21573;-56
2021/04/06 06:37:26;;;;;;;4.90;3.20;;;;;;;21.44;50.99;99637.64;1799638;78;20308;-55
2021/04/06 06:39:58;;;;;;;5.60;3.67;;;;;;;21.42;51.06;99638.59;1789472;78;21918;-55
2021/04/06 06:42:34;;;;;;;6.78;3.52;;;;;;;21.39;51.05;99635.92;1771370;80;21180;-53
2021/04/06 06:45:01;;;;;;;6.05;3.50;;;;;;;21.37;51.06;99636.06;1789461;78;21565;-55
2021/04/06 06:47:28;;;;;;;5.40;3.17;;;;;;;21.33;51.08;99633.20;1788709;78;21173;-54
2021/04/06 06:49:57;;;;;;;6.10;3.27;;;;;;;21.27;51.06;99640.69;1788892;78;21188;-56
2021/04/06 06:52:28;;;;;;;7.65;3.25;;;;;;;21.22;51.13;99634.02;1761986;79;21154;-53
2021/04/06 06:55:03;;;;;;;4.25;3.17;;;;;;;21.19;51.18;99631.95;1774603;80;21164;-54
2021/04/06 06:57:34;;;;;;;5.10;3.20;;;;;;;21.19;51.21;99625.85;1774902;79;21249;-55
2021/04/06 07:00:14;;;;;;;5.53;3.10;;;;;;;21.18;51.19;99622.84;1768200;79;21574;-54
2021/04/06 07:02:41;;;;;;;4.80;2.83;;;;;;;21.16;51.17;99623.80;1796091;79;21207;-54
2021/04/06 07:05:18;;;;;;;8.03;3.72;;;;;;;21.12;51.18;99614.59;1795547;79;21198;-54
2021/04/06 07:07:54;;;;;;;5.22;3.10;;;;;;;21.08;51.13;99612.83;1767368;80;21212;-54
2021/04/06 07:10:24;;;;;;;4.20;2.95;;;;;;;21.03;51.16;99604.77;1788602;78;21635;-53
2021/04/06 07:13:04;;;;;;;3.93;3.10;;;;;;;21.02;51.21;99608.11;1799711;79;21215;-54
2021/04/06 07:15:31;;;;;;;5.45;3.40;;;;;;;21.05;51.18;99608.02;1811090;78;21260;-54
2021/04/06 07:18:03;;;;;;;6.35;3.27;;;;;;;21.03;51.15;99609.73;1782637;79;21224;-56
2021/04/06 07:20:32;;;;;;;5.10;3.08;;;;;;;21.01;51.13;99609.27;1782072;78;21252;-54
2021/04/06 07:23:02;;;;;;;4.08;3.05;;;;;;;20.97;51.10;99604.20;1774727;79;21257;-54
2021/04/06 07:25:29;;;;;;;6.62;3.02;;;;;;;20.93;51.09;99606.05;1773488;79;26979;-53
2021/04/06 07:27:56;;;;;;;3.92;3.05;;;;;;;20.89;51.10;99611.48;1774407;79;21193;-54
2021/04/06 07:30:24;;;;;;;4.12;2.60;;;;;;;20.89;51.13;99621.16;1777321;79;21624;-54
2021/04/06 07:32:52;;;;;;;3.92;2.87;;;;;;;20.92;51.12;99627.94;1779044;80;21381;-54
2021/04/06 07:35:18;;;;;;;4.33;2.60;;;;;;;20.94;51.06;99630.59;1788229;80;21158;-53
2021/04/06 07:37:45;;;;;;;3.47;2.87;;;;;;;20.93;51.01;99620.69;1783167;80;21130;-55
2021/04/06 07:40:20;;;;;;;3.55;2.72;;;;;;;20.94;50.99;99622.30;1813156;77;21162;-55
2021/04/06 07:42:47;;;;;;;3.58;2.80;;;;;;;20.94;50.96;99626.45;1792770;79;21158;-54
2021/04/06 07:45:28;;;;;;;3.47;2.58;;;;;;;20.94;50.91;99631.98;1771018;79;21173;-54
2021/04/06 07:47:54;;;;;;;4.58;2.77;;;;;;;20.96;50.92;99621.97;1780977;78;21254;-56
2021/04/06 07:50:44;;;;;;;3.67;2.40;;;;;;;21.01;50.89;99624.47;1800653;78;21051;-56
2021/04/06 07:53:29;;;;;;;5.85;2.92;;;;;;;21.06;50.83;99623.42;1797038;78;21154;-56
2021/04/06 07:56:00;;;;;;;3.52;2.50;;;;;;;21.09;50.76;99625.52;1801675;78;21083;-55
2021/04/06 07:58:48;;;;;;;3.15;2.47;;;;;;;21.11;50.72;99624.57;1789927;78;21135;-56
2021/04/06 08:01:18;;;;;;;4.00;2.75;;;;;;;21.11;50.71;99614.89;1789303;78;21246;-56
2021/04/06 08:04:00;;;;;;;3.45;2.50;;;;;;;21.14;50.72;99618.36;1807117;77;21187;-56
2021/04/06 08:06:31;;;;;;;3.25;2.05;;;;;;;21.19;50.72;99617.55;1807817;78;21194;-57
2021/04/06 08:08:57;;;;;;;3.37;2.33;;;;;;;21.24;50.67;99617.31;1786994;78;21125;-57
2021/04/06 08:12:04;;;;;;;3.35;2.27;;;;;;;21.28;50.62;99616.03;1813245;77;21143;-56
2021/04/06 08:14:45;;;;;;;3.25;2.30;;;;;;;21.29;50.61;99614.88;1804742;77;22034;-57
2021/04/06 08:17:30;;;;;;;3.12;2.20;;;;;;;21.28;50.56;99609.11;1808359;77;21193;-57
2021/04/06 08:20:04;;;;;;;3.35;2.30;;;;;;;21.27;50.56;99612.45;1801220;78;21581;-56
2021/04/06 08:22:35;;;;;;;2.50;2.00;;;;;;;21.29;50.61;99607.97;1787864;78;21186;-56
2021/04/06 08:25:22;;;;;;;2.62;2.05;;;;;;;21.34;50.63;99608.50;1792375;78;21170;-56
2021/04/06 08:28:04;;;;;;;3.83;2.15;;;;;;;21.39;50.58;99607.45;1796801;78;22222;-56
2021/04/06 08:30:34;;;;;;;3.55;2.33;;;;;;;21.40;50.53;99607.11;1803115;78;21206;-56
2021/04/06 08:33:11;;;;;;;3.27;2.37;;;;;;;21.39;50.50;99600.53;1796388;78;21677;-56
2021/04/06 08:35:52;;;;;;;2.70;2.10;;;;;;;21.37;50.50;99586.27;1796002;78;21107;-56
2021/04/06 08:38:32;;;;;;;2.77;2.25;;;;;;;21.35;50.50;99588.56;1791544;78;22282;-56
2021/04/06 08:41:14;;;;;;;3.40;2.47;;;;;;;21.35;50.54;99589.37;1792339;78;21275;-57
2021/04/06 08:43:47;;;;;;;2.50;2.12;;;;;;;21.40;50.54;99588.31;1789406;78;21246;-56
2021/04/06 08:46:31;;;;;;;2.77;2.00;;;;;;;21.43;50.50;99577.34;1794444;78;21603;-56
2021/04/06 08:48:57;;;;;;;4.20;2.02;;;;;;;21.45;50.44;99574.23;1798298;78;21208;-56
2021/04/06 08:51:45;;;;;;;2.77;1.75;;;;;;;21.45;50.43;99567.89;1813300;77;21736;-56
2021/04/06 08:54:28;;;;;;;2.98;2.08;;;;;;;21.43;50.40;99566.84;1779892;78;21218;-56
2021/04/06 08:57:03;;;;;;;3.10;2.10;;;;;;;21.38;50.40;99551.91;1774912;78;21229;-56
2021/04/06 08:59:33;;;;;;;3.02;1.90;;;;;;;21.38;50.44;99557.44;1769007;80;21678;-56
2021/04/06 09:02:09;;;;;;;3.50;2.25;;;;;;;21.39;50.50;99551.53;1767118;80;21185;-56
2021/04/06 09:04:48;;;;;;;3.08;2.08;;;;;;;21.43;50.45;99543.94;1760060;81;21659;-56
2021/04/06 09:07:24;;;;;;;3.62;2.27;;;;;;;21.44;50.42;99546.33;1759544;81;21864;-57
2021/04/06 09:09:59;;;;;;;3.10;2.00;;;;;;;21.43;50.41;99541.38;1765147;81;21300;-56
2021/04/06 09:12:31;;;;;;;2.95;1.72;;;;;;;21.41;50.39;99537.36;1754357;81;21075;-56
2021/04/06 09:14:58;;;;;;;2.67;1.90;;;;;;;21.38;50.41;99535.31;1758606;81;21615;-56
2021/04/06 09:17:32;;;;;;;2.35;1.65;;;;;;;21.37;50.46;99536.46;1757885;81;21170;-57
2021/04/06 09:20:03;;;;;;;2.87;1.80;;;;;;;21.37;50.48;99531.73;1736428;81;21571;-56
2021/04/06 09:22:44;;;;;;;2.65;1.87;;;;;;;21.45;50.48;99531.34;1914838;73;22699;-56
2021/04/06 09:25:22;;;;;;;3.62;2.00;;;;;;;21.41;50.45;99520.19;1804729;77;21417;-56
2021/04/06 09:27:58;;;;;;;2.83;1.87;;;;;;;21.41;50.45;99516.61;1825838;76;21279;-57
2021/04/06 09:30:32;;;;;;;2.25;1.80;;;;;;;21.39;50.43;99514.77;1828258;76;21603;-56
2021/04/06 09:33:05;;;;;;;2.50;1.85;;;;;;;21.36;50.47;99515.48;1830540;76;20979;-56
2021/04/06 09:35:31;;;;;;;3.05;2.08;;;;;;;21.34;50.50;99517.81;1831231;76;21333;-56
2021/04/06 09:37:58;;;;;;;2.15;1.60;;;;;;;21.35;50.55;99505.56;1834561;76;21028;-56
2021/04/06 09:40:33;;;;;;;3.05;1.80;;;;;;;21.38;50.53;99501.53;1831330;76;22092;-56
2021/04/06 09:42:59;;;;;;;2.58;1.72;;;;;;;21.39;50.52;99500.93;1829176;76;21214;-56
2021/04/06 09:45:27;;;;;;;2.85;1.70;;;;;;;21.39;50.50;99493.44;1824880;76;21200;-56
2021/04/06 09:47:54;;;;;;;2.67;1.57;;;;;;;21.38;50.48;99495.19;1797991;77;21098;-56
2021/04/06 09:50:22;;;;;;;2.12;1.60;;;;;;;21.35;50.51;99486.20;1838377;76;21781;-56
2021/04/06 09:52:49;;;;;;;2.60;1.82;;;;;;;21.36;50.54;99483.66;1820427;76;21624;-56
2021/04/06 09:55:15;;;;;;;2.10;1.75;;;;;;;21.38;50.55;99478.02;1850284;75;21227;-56
2021/04/06 09:57:47;;;;;;;1.87;1.50;;;;;;;21.43;50.52;99470.81;1849963;75;21926;-56
2021/04/06 10:00:17;;;;;;;2.17;1.67;;;;;;;21.47;50.44;99470.13;1846085;76;21183;-56
2021/04/06 10:03:07;;;;;;;2.25;1.70;;;;;;;21.48;50.40;99464.80;1848137;75;21181;-56
2021/04/06 10:05:34;;;;;;;1.87;1.62;;;;;;;21.47;50.36;99465.40;1846227;75;21220;-56
2021/04/06 10:08:00;;;;;;;2.05;1.55;;;;;;;21.45;50.34;99461.36;1847687;75;21084;-56
2021/04/06 10:10:30;;;;;;;2.33;1.80;;;;;;;21.43;50.33;99460.32;1848490;75;21132;-56
2021/04/06 10:12:57;;;;;;;2.22;1.82;;;;;;;21.41;50.37;99460.70;1839546;75;21193;-56
2021/04/06 10:15:30;;;;;;;2.30;1.80;;;;;;;21.46;50.37;99450.53;1852775;77;21149;-57
2021/04/06 10:17:56;;;;;;;2.60;1.75;;;;;;;21.49;50.34;99450.61;1841495;75;21126;-56
2021/04/06 10:20:25;;;;;;;2.35;1.60;;;;;;;21.50;50.29;99447.27;1768181;78;21165;-56
2021/04/06 10:22:56;;;;;;;2.47;1.80;;;;;;;21.50;50.26;99450.03;1848546;75;21540;-56
2021/04/06 10:25:30;;;;;;;2.60;1.90;;;;;;;21.49;50.23;99448.42;1853831;77;21130;-54
2021/04/06 10:28:00;;;;;;;2.35;1.60;;;;;;;21.48;50.23;99443.46;1838600;77;21153;-54
2021/04/06 10:30:48;;;;;;;1.47;1.25;;;;;;;21.48;50.23;99440.70;1833450;75;21180;-56
2021/04/06 10:33:20;;;;;;;2.27;1.72;;;;;;;21.52;50.23;99424.18;1834343;75;21122;-56
2021/04/06 10:35:55;;;;;;;4.72;1.80;;;;;;;21.54;50.17;99422.68;1830647;77;21166;-57
2021/04/06 10:38:35;;;;;;;2.10;1.35;;;;;;;21.55;50.15;99433.17;1807707;77;21191;-56
2021/04/06 10:41:17;;;;;;;1.92;1.50;;;;;;;21.54;50.12;99421.87;1798060;77;21791;-58
2021/04/06 10:43:47;;;;;;;2.08;1.65;;;;;;;21.54;50.14;99419.91;1820881;76;21279;-57
2021/04/06 10:46:20;;;;;;;2.08;1.55;;;;;;;21.57;50.15;99415.04;1816086;76;21236;-57
2021/04/06 10:48:49;;;;;;;1.92;1.47;;;;;;;21.60;50.13;99412.16;1820531;76;21593;-57
2021/04/06 10:51:22;;;;;;;2.10;1.62;;;;;;;21.62;50.09;99399.55;1820599;76;21894;-57
2021/04/06 10:54:01;;;;;;;2.47;1.40;;;;;;;21.62;50.07;99397.36;1828966;76;21185;-57
2021/04/06 10:56:30;;;;;;;2.10;1.32;;;;;;;21.62;50.06;99391.83;1827849;76;21252;-58
2021/04/06 10:59:07;;;;;;;2.35;1.52;;;;;;;21.62;50.06;99389.06;1814675;76;21178;-57
2021/04/06 11:01:48;;;;;;;2.52;1.47;;;;;;;21.67;50.07;99399.86;1820072;76;21213;-58
2021/04/06 11:04:18;;;;;;;1.70;1.20;;;;;;;21.73;50.04;99385.95;1820126;76;21216;-57
2021/04/06 11:06:48;;;;;;;2.00;1.13;;;;;;;21.80;49.94;99390.30;1826536;76;21173;-57
2021/04/06 11:09:39;;;;;;;1.42;1.30;;;;;;;21.83;49.85;99384.03;1825713;76;21635;-57
2021/04/06 11:12:11;;;;;;;2.02;1.37;;;;;;;21.84;49.78;99390.61;1812168;76;21409;-57
2021/04/06 11:14:39;;;;;;;1.72;1.40;;;;;;;21.84;49.67;99387.03;1805883;77;21082;-57
2021/04/06 11:17:08;;;;;;;2.25;1.35;;;;;;;21.84;49.61;99384.27;1807823;77;21752;-57
2021/04/06 11:19:43;;;;;;;2.15;1.30;;;;;;;21.87;49.60;99375.23;1820355;77;21170;-58
2021/04/06 11:22:15;;;;;;;2.50;1.45;;;;;;;21.93;49.56;99379.95;1792956;76;21481;-57
2021/04/06 11:24:43;;;;;;;1.55;1.10;;;;;;;21.97;49.28;99369.17;1798757;77;21577;-57
2021/04/06 11:27:10;;;;;;;3.58;1.50;;;;;;;21.99;49.12;99366.83;1809318;78;21848;-57
2021/04/06 11:29:38;;;;;;;2.27;1.30;;;;;;;22.00;49.04;99366.25;1802234;77;21173;-57
2021/04/06 11:32:11;;;;;;;1.50;1.17;;;;;;;22.01;48.98;99366.48;1813146;77;21084;-56
2021/04/06 11:34:38;;;;;;;1.42;1.10;;;;;;;22.03;49.00;99371.06;1790234;77;21621;-56
2021/04/06 11:37:05;;;;;;;1.85;1.10;;;;;;;22.08;48.97;99352.20;1793083;77;21252;-58
2021/04/06 11:39:36;;;;;;;2.45;1.15;;;;;;;22.13;48.90;99349.73;1819799;78;21409;-57
2021/04/06 11:42:05;;;;;;;2.27;1.17;;;;;;;22.18;48.81;99341.14;1812322;78;21695;-57
2021/04/06 11:44:32;;;;;;;1.80;1.40;;;;;;;22.19;48.76;99331.67;1826425;76;21166;-58
2021/04/06 11:46:59;;;;;;;1.47;1.00;;;;;;;22.20;48.71;99338.80;1815157;78;21152;-57
2021/04/06 11:49:26;;;;;;;1.92;1.20;;;;;;;22.21;48.68;99339.83;1803782;77;21160;-56
2021/04/06 11:51:53;;;;;;;2.20;1.30;;;;;;;22.22;48.68;99336.48;1827741;76;20975;-57
2021/04/06 11:54:24;;;;;;;1.75;0.90;;;;;;;22.29;48.65;99338.00;1814930;76;21125;-57
2021/04/06 11:56:58;;;;;;;1.75;1.17;;;;;;;22.33;48.57;99336.91;1779988;78;21130;-57